sensor_id;sensor_type;location;lat;lon;timestamp;P1;durP1;ratioP1;P2;durP2;ratioP2
35578;SDS011;21687;48.900;9.188;2023-07-30T00:02:06;2.50;;;2.30;;
35578;SDS011;21687;48.900;9.188;2023-07-30T00:04:33;2.30;;;2.10;;
35578;SDS011;21687;48.900;9.188;2023-07-30T00:06:59;1.90;;;1.73;;
35578;SDS011;21687;48.900;9.188;2023-07-30T00:09:25;2.23;;;2.00;;
35578;SDS011;21687;48.900;9.188;2023-07-30T00:11:51;2.50;;;1.80;;
35578;SDS011;21687;48.900;9.188;2023-07-30T00:14:18;2.00;;;1.80;;
35578;SDS011;21687;48.900;9.188;2023-07-30T00:16:45;1.97;;;1.77;;
35578;SDS011;21687;48.900;9.188;2023-07-30T00:19:11;1.90;;;1.80;;
35578;SDS011;21687;48.900;9.188;2023-07-30T00:21:37;1.70;;;1.60;;
35578;SDS011;21687;48.900;9.188;2023-07-30T00:24:04;1.80;;;1.70;;
35578;SDS011;21687;48.900;9.188;2023-07-30T00:26:30;2.30;;;1.60;;
35578;SDS011;21687;48.900;9.188;2023-07-30T00:28:56;1.90;;;1.70;;
35578;SDS011;21687;48.900;9.188;2023-07-30T00:31:23;3.67;;;2.80;;
35578;SDS011;21687;48.900;9.188;2023-07-30T00:33:49;1.80;;;1.70;;
35578;SDS011;21687;48.900;9.188;2023-07-30T00:36:15;1.93;;;1.83;;
35578;SDS011;21687;48.900;9.188;2023-07-30T00:38:42;2.63;;;1.50;;
35578;SDS011;21687;48.900;9.188;2023-07-30T00:41:08;1.73;;;1.63;;
35578;SDS011;21687;48.900;9.188;2023-07-30T00:43:34;2.03;;;1.50;;
35578;SDS011;21687;48.900;9.188;2023-07-30T00:46:01;1.70;;;1.60;;
35578;SDS011;21687;48.900;9.188;2023-07-30T00:48:28;2.73;;;1.70;;
35578;SDS011;21687;48.900;9.188;2023-07-30T00:50:55;3.07;;;2.30;;
35578;SDS011;21687;48.900;9.188;2023-07-30T00:53:22;3.63;;;2.07;;
35578;SDS011;21687;48.900;9.188;2023-07-30T00:55:51;1.90;;;1.77;;
35578;SDS011;21687;48.900;9.188;2023-07-30T00:58:17;1.53;;;1.43;;
35578;SDS011;21687;48.900;9.188;2023-07-30T01:00:46;1.73;;;1.63;;
35578;SDS011;21687;48.900;9.188;2023-07-30T01:03:13;2.03;;;1.93;;
35578;SDS011;21687;48.900;9.188;2023-07-30T01:05:39;3.13;;;1.60;;
35578;SDS011;21687;48.900;9.188;2023-07-30T01:08:06;2.53;;;1.80;;
35578;SDS011;21687;48.900;9.188;2023-07-30T01:10:32;2.23;;;2.07;;
35578;SDS011;21687;48.900;9.188;2023-07-30T01:13:00;4.03;;;2.67;;
35578;SDS011;21687;48.900;9.188;2023-07-30T01:15:28;4.07;;;3.40;;
35578;SDS011;21687;48.900;9.188;2023-07-30T01:17:55;4.80;;;3.33;;
35578;SDS011;21687;48.900;9.188;2023-07-30T01:20:22;3.10;;;2.40;;
35578;SDS011;21687;48.900;9.188;2023-07-30T01:22:48;4.63;;;3.40;;
35578;SDS011;21687;48.900;9.188;2023-07-30T01:25:16;2.37;;;2.17;;
35578;SDS011;21687;48.900;9.188;2023-07-30T01:27:44;3.67;;;2.13;;
35578;SDS011;21687;48.900;9.188;2023-07-30T01:30:26;2.23;;;2.07;;
35578;SDS011;21687;48.900;9.188;2023-07-30T01:33:05;1.80;;;1.70;;
35578;SDS011;21687;48.900;9.188;2023-07-30T01:35:32;2.33;;;2.00;;
35578;SDS011;21687;48.900;9.188;2023-07-30T01:38:00;1.93;;;1.80;;
35578;SDS011;21687;48.900;9.188;2023-07-30T01:40:31;1.80;;;1.70;;
35578;SDS011;21687;48.900;9.188;2023-07-30T01:42:58;2.10;;;1.90;;
35578;SDS011;21687;48.900;9.188;2023-07-30T01:45:24;1.97;;;1.87;;
35578;SDS011;21687;48.900;9.188;2023-07-30T01:47:51;2.17;;;2.00;;
35578;SDS011;21687;48.900;9.188;2023-07-30T01:50:18;2.10;;;1.90;;
35578;SDS011;21687;48.900;9.188;2023-07-30T01:52:44;3.40;;;2.50;;
35578;SDS011;21687;48.900;9.188;2023-07-30T01:55:10;2.90;;;2.40;;
35578;SDS011;21687;48.900;9.188;2023-07-30T01:57:36;3.10;;;2.40;;
35578;SDS011;21687;48.900;9.188;2023-07-30T02:00:03;5.33;;;2.60;;
35578;SDS011;21687;48.900;9.188;2023-07-30T02:02:30;2.60;;;2.40;;
35578;SDS011;21687;48.900;9.188;2023-07-30T02:04:56;2.60;;;2.40;;
35578;SDS011;21687;48.900;9.188;2023-07-30T02:07:22;2.60;;;2.40;;
35578;SDS011;21687;48.900;9.188;2023-07-30T02:09:49;2.67;;;2.47;;
35578;SDS011;21687;48.900;9.188;2023-07-30T02:12:15;3.87;;;2.57;;
35578;SDS011;21687;48.900;9.188;2023-07-30T02:14:41;3.30;;;2.80;;
35578;SDS011;21687;48.900;9.188;2023-07-30T02:17:08;2.90;;;2.57;;
35578;SDS011;21687;48.900;9.188;2023-07-30T02:19:34;2.83;;;2.47;;
35578;SDS011;21687;48.900;9.188;2023-07-30T02:22:00;3.23;;;2.83;;
35578;SDS011;21687;48.900;9.188;2023-07-30T02:24:27;2.60;;;2.40;;
35578;SDS011;21687;48.900;9.188;2023-07-30T02:26:53;3.10;;;2.70;;
35578;SDS011;21687;48.900;9.188;2023-07-30T02:29:19;3.70;;;2.67;;
35578;SDS011;21687;48.900;9.188;2023-07-30T02:31:46;2.60;;;2.40;;
35578;SDS011;21687;48.900;9.188;2023-07-30T02:34:12;2.90;;;2.60;;
35578;SDS011;21687;48.900;9.188;2023-07-30T02:36:38;5.20;;;2.97;;
35578;SDS011;21687;48.900;9.188;2023-07-30T02:39:04;2.63;;;2.40;;
35578;SDS011;21687;48.900;9.188;2023-07-30T02:41:31;3.53;;;2.67;;
35578;SDS011;21687;48.900;9.188;2023-07-30T02:43:57;3.00;;;2.60;;
35578;SDS011;21687;48.900;9.188;2023-07-30T02:46:23;3.23;;;2.60;;
35578;SDS011;21687;48.900;9.188;2023-07-30T02:48:49;3.13;;;2.73;;
35578;SDS011;21687;48.900;9.188;2023-07-30T02:51:16;4.57;;;2.70;;
35578;SDS011;21687;48.900;9.188;2023-07-30T02:53:45;4.03;;;2.90;;
35578;SDS011;21687;48.900;9.188;2023-07-30T02:56:11;2.97;;;2.70;;
35578;SDS011;21687;48.900;9.188;2023-07-30T02:58:37;3.00;;;2.80;;
35578;SDS011;21687;48.900;9.188;2023-07-30T03:01:07;2.70;;;2.50;;
35578;SDS011;21687;48.900;9.188;2023-07-30T03:03:34;2.70;;;2.50;;
35578;SDS011;21687;48.900;9.188;2023-07-30T03:06:01;3.63;;;2.70;;
35578;SDS011;21687;48.900;9.188;2023-07-30T03:08:27;3.27;;;2.47;;
35578;SDS011;21687;48.900;9.188;2023-07-30T03:10:53;4.00;;;2.60;;
35578;SDS011;21687;48.900;9.188;2023-07-30T03:13:22;3.47;;;2.80;;
35578;SDS011;21687;48.900;9.188;2023-07-30T03:15:48;3.93;;;2.60;;
35578;SDS011;21687;48.900;9.188;2023-07-30T03:18:14;3.50;;;2.87;;
35578;SDS011;21687;48.900;9.188;2023-07-30T03:20:41;3.13;;;2.87;;
35578;SDS011;21687;48.900;9.188;2023-07-30T03:23:07;4.17;;;3.30;;
35578;SDS011;21687;48.900;9.188;2023-07-30T03:25:33;4.47;;;2.93;;
35578;SDS011;21687;48.900;9.188;2023-07-30T03:27:59;3.03;;;2.83;;
35578;SDS011;21687;48.900;9.188;2023-07-30T03:30:26;3.43;;;3.13;;
35578;SDS011;21687;48.900;9.188;2023-07-30T03:32:52;3.30;;;3.00;;
35578;SDS011;21687;48.900;9.188;2023-07-30T03:35:18;3.50;;;3.10;;
35578;SDS011;21687;48.900;9.188;2023-07-30T03:37:44;3.17;;;2.87;;
35578;SDS011;21687;48.900;9.188;2023-07-30T03:40:11;4.73;;;3.60;;
35578;SDS011;21687;48.900;9.188;2023-07-30T03:42:37;7.23;;;3.43;;
35578;SDS011;21687;48.900;9.188;2023-07-30T03:45:04;3.80;;;3.27;;
35578;SDS011;21687;48.900;9.188;2023-07-30T03:47:31;3.70;;;3.13;;
35578;SDS011;21687;48.900;9.188;2023-07-30T03:49:57;4.13;;;3.10;;
35578;SDS011;21687;48.900;9.188;2023-07-30T03:52:23;3.50;;;3.20;;
35578;SDS011;21687;48.900;9.188;2023-07-30T03:54:50;3.73;;;3.00;;
35578;SDS011;21687;48.900;9.188;2023-07-30T03:57:16;4.90;;;3.30;;
35578;SDS011;21687;48.900;9.188;2023-07-30T03:59:42;3.30;;;3.00;;
35578;SDS011;21687;48.900;9.188;2023-07-30T04:02:08;3.23;;;2.93;;
35578;SDS011;21687;48.900;9.188;2023-07-30T04:04:40;4.93;;;3.60;;
35578;SDS011;21687;48.900;9.188;2023-07-30T04:07:08;3.40;;;3.10;;
35578;SDS011;21687;48.900;9.188;2023-07-30T04:09:35;3.37;;;3.07;;
35578;SDS011;21687;48.900;9.188;2023-07-30T04:12:01;4.03;;;3.67;;
35578;SDS011;21687;48.900;9.188;2023-07-30T04:14:28;4.10;;;3.20;;
35578;SDS011;21687;48.900;9.188;2023-07-30T04:16:55;4.23;;;3.33;;
35578;SDS011;21687;48.900;9.188;2023-07-30T04:19:21;3.90;;;3.60;;
35578;SDS011;21687;48.900;9.188;2023-07-30T04:21:47;4.10;;;3.20;;
35578;SDS011;21687;48.900;9.188;2023-07-30T04:24:14;4.87;;;3.40;;
35578;SDS011;21687;48.900;9.188;2023-07-30T04:26:40;3.57;;;3.27;;
35578;SDS011;21687;48.900;9.188;2023-07-30T04:29:06;4.27;;;3.30;;
35578;SDS011;21687;48.900;9.188;2023-07-30T04:31:32;4.10;;;3.70;;
35578;SDS011;21687;48.900;9.188;2023-07-30T04:33:59;4.30;;;3.90;;
35578;SDS011;21687;48.900;9.188;2023-07-30T04:36:25;3.90;;;3.50;;
35578;SDS011;21687;48.900;9.188;2023-07-30T04:38:52;3.80;;;3.40;;
35578;SDS011;21687;48.900;9.188;2023-07-30T04:41:19;4.07;;;3.23;;
35578;SDS011;21687;48.900;9.188;2023-07-30T04:43:45;4.27;;;3.77;;
35578;SDS011;21687;48.900;9.188;2023-07-30T04:46:12;4.07;;;3.37;;
35578;SDS011;21687;48.900;9.188;2023-07-30T04:48:38;4.23;;;3.87;;
35578;SDS011;21687;48.900;9.188;2023-07-30T04:51:05;3.83;;;3.43;;
35578;SDS011;21687;48.900;9.188;2023-07-30T04:53:32;3.90;;;3.60;;
35578;SDS011;21687;48.900;9.188;2023-07-30T04:55:58;3.77;;;3.47;;
35578;SDS011;21687;48.900;9.188;2023-07-30T04:58:25;3.93;;;3.63;;
35578;SDS011;21687;48.900;9.188;2023-07-30T05:00:51;4.30;;;3.90;;
35578;SDS011;21687;48.900;9.188;2023-07-30T05:03:18;3.67;;;3.30;;
35578;SDS011;21687;48.900;9.188;2023-07-30T05:05:44;3.67;;;3.37;;
35578;SDS011;21687;48.900;9.188;2023-07-30T05:08:10;4.10;;;3.70;;
35578;SDS011;21687;48.900;9.188;2023-07-30T05:10:37;4.57;;;4.10;;
35578;SDS011;21687;48.900;9.188;2023-07-30T05:13:03;3.47;;;3.17;;
35578;SDS011;21687;48.900;9.188;2023-07-30T05:15:29;3.10;;;2.80;;
35578;SDS011;21687;48.900;9.188;2023-07-30T05:17:56;3.57;;;3.27;;
35578;SDS011;21687;48.900;9.188;2023-07-30T05:20:22;3.57;;;3.20;;
35578;SDS011;21687;48.900;9.188;2023-07-30T05:22:48;3.27;;;2.90;;
35578;SDS011;21687;48.900;9.188;2023-07-30T05:25:15;2.83;;;2.63;;
35578;SDS011;21687;48.900;9.188;2023-07-30T05:27:41;2.93;;;2.63;;
35578;SDS011;21687;48.900;9.188;2023-07-30T05:30:07;2.60;;;2.40;;
35578;SDS011;21687;48.900;9.188;2023-07-30T05:32:34;2.87;;;2.30;;
35578;SDS011;21687;48.900;9.188;2023-07-30T05:35:00;3.17;;;2.50;;
35578;SDS011;21687;48.900;9.188;2023-07-30T05:37:27;3.07;;;2.43;;
35578;SDS011;21687;48.900;9.188;2023-07-30T05:39:53;2.77;;;2.40;;
35578;SDS011;21687;48.900;9.188;2023-07-30T05:42:19;2.77;;;2.50;;
35578;SDS011;21687;48.900;9.188;2023-07-30T05:44:45;2.93;;;2.63;;
35578;SDS011;21687;48.900;9.188;2023-07-30T05:47:12;2.70;;;2.50;;
35578;SDS011;21687;48.900;9.188;2023-07-30T05:49:39;2.47;;;2.27;;
35578;SDS011;21687;48.900;9.188;2023-07-30T05:52:05;2.70;;;2.40;;
35578;SDS011;21687;48.900;9.188;2023-07-30T05:54:31;2.70;;;2.50;;
35578;SDS011;21687;48.900;9.188;2023-07-30T05:56:58;3.17;;;2.90;;
35578;SDS011;21687;48.900;9.188;2023-07-30T05:59:24;2.93;;;2.60;;
35578;SDS011;21687;48.900;9.188;2023-07-30T06:01:50;2.50;;;2.30;;
35578;SDS011;21687;48.900;9.188;2023-07-30T06:04:17;2.37;;;2.17;;
35578;SDS011;21687;48.900;9.188;2023-07-30T06:06:43;2.43;;;2.23;;
35578;SDS011;21687;48.900;9.188;2023-07-30T06:09:10;2.23;;;1.77;;
35578;SDS011;21687;48.900;9.188;2023-07-30T06:11:37;2.20;;;2.00;;
35578;SDS011;21687;48.900;9.188;2023-07-30T06:14:03;2.40;;;2.20;;
35578;SDS011;21687;48.900;9.188;2023-07-30T06:16:30;2.30;;;2.10;;
35578;SDS011;21687;48.900;9.188;2023-07-30T06:18:56;2.40;;;2.00;;
35578;SDS011;21687;48.900;9.188;2023-07-30T06:21:22;3.07;;;2.30;;
35578;SDS011;21687;48.900;9.188;2023-07-30T06:23:48;2.60;;;1.97;;
35578;SDS011;21687;48.900;9.188;2023-07-30T06:26:15;2.00;;;1.87;;
35578;SDS011;21687;48.900;9.188;2023-07-30T06:28:41;3.70;;;2.13;;
35578;SDS011;21687;48.900;9.188;2023-07-30T06:31:07;3.73;;;1.93;;
35578;SDS011;21687;48.900;9.188;2023-07-30T06:33:34;2.23;;;1.90;;
35578;SDS011;21687;48.900;9.188;2023-07-30T06:36:00;2.00;;;1.80;;
35578;SDS011;21687;48.900;9.188;2023-07-30T06:38:26;2.00;;;1.70;;
35578;SDS011;21687;48.900;9.188;2023-07-30T06:40:52;2.70;;;1.77;;
35578;SDS011;21687;48.900;9.188;2023-07-30T06:43:19;1.80;;;1.70;;
35578;SDS011;21687;48.900;9.188;2023-07-30T06:45:45;2.90;;;1.57;;
35578;SDS011;21687;48.900;9.188;2023-07-30T06:48:11;2.00;;;1.73;;
35578;SDS011;21687;48.900;9.188;2023-07-30T06:50:38;1.70;;;1.60;;
35578;SDS011;21687;48.900;9.188;2023-07-30T06:53:04;1.60;;;1.50;;
35578;SDS011;21687;48.900;9.188;2023-07-30T06:55:31;1.50;;;1.40;;
35578;SDS011;21687;48.900;9.188;2023-07-30T06:57:57;1.37;;;1.30;;
35578;SDS011;21687;48.900;9.188;2023-07-30T07:00:23;1.70;;;1.30;;
35578;SDS011;21687;48.900;9.188;2023-07-30T07:02:50;1.50;;;1.40;;
35578;SDS011;21687;48.900;9.188;2023-07-30T07:05:16;1.50;;;1.40;;
35578;SDS011;21687;48.900;9.188;2023-07-30T07:07:43;1.40;;;1.40;;
35578;SDS011;21687;48.900;9.188;2023-07-30T07:10:10;1.50;;;1.40;;
35578;SDS011;21687;48.900;9.188;2023-07-30T07:12:37;1.60;;;1.40;;
35578;SDS011;21687;48.900;9.188;2023-07-30T07:15:05;2.47;;;1.57;;
35578;SDS011;21687;48.900;9.188;2023-07-30T07:17:32;2.27;;;1.50;;
35578;SDS011;21687;48.900;9.188;2023-07-30T07:19:58;1.70;;;1.60;;
35578;SDS011;21687;48.900;9.188;2023-07-30T07:22:24;1.70;;;1.60;;
35578;SDS011;21687;48.900;9.188;2023-07-30T07:24:51;1.87;;;1.77;;
35578;SDS011;21687;48.900;9.188;2023-07-30T07:27:20;2.83;;;2.63;;
35578;SDS011;21687;48.900;9.188;2023-07-30T07:29:49;2.17;;;1.90;;
35578;SDS011;21687;48.900;9.188;2023-07-30T07:32:16;1.80;;;1.70;;
35578;SDS011;21687;48.900;9.188;2023-07-30T07:34:46;4.17;;;2.10;;
35578;SDS011;21687;48.900;9.188;2023-07-30T07:37:13;1.97;;;1.87;;
35578;SDS011;21687;48.900;9.188;2023-07-30T07:39:41;4.13;;;2.00;;
35578;SDS011;21687;48.900;9.188;2023-07-30T07:42:07;2.30;;;2.10;;
35578;SDS011;21687;48.900;9.188;2023-07-30T07:44:34;2.27;;;2.07;;
35578;SDS011;21687;48.900;9.188;2023-07-30T07:47:00;2.33;;;2.03;;
35578;SDS011;21687;48.900;9.188;2023-07-30T07:49:27;4.73;;;2.00;;
35578;SDS011;21687;48.900;9.188;2023-07-30T07:51:53;2.00;;;1.90;;
35578;SDS011;21687;48.900;9.188;2023-07-30T07:54:19;2.90;;;2.20;;
35578;SDS011;21687;48.900;9.188;2023-07-30T07:56:45;4.77;;;1.87;;
35578;SDS011;21687;48.900;9.188;2023-07-30T07:59:12;1.70;;;1.60;;
35578;SDS011;21687;48.900;9.188;2023-07-30T08:01:38;2.13;;;1.50;;
35578;SDS011;21687;48.900;9.188;2023-07-30T08:04:04;2.13;;;2.03;;
35578;SDS011;21687;48.900;9.188;2023-07-30T08:06:31;2.30;;;2.10;;
35578;SDS011;21687;48.900;9.188;2023-07-30T08:08:58;1.87;;;1.77;;
35578;SDS011;21687;48.900;9.188;2023-07-30T08:11:24;2.40;;;2.20;;
35578;SDS011;21687;48.900;9.188;2023-07-30T08:13:50;2.10;;;1.93;;
35578;SDS011;21687;48.900;9.188;2023-07-30T08:16:17;2.40;;;2.17;;
35578;SDS011;21687;48.900;9.188;2023-07-30T08:18:43;2.30;;;2.10;;
35578;SDS011;21687;48.900;9.188;2023-07-30T08:21:09;2.20;;;2.00;;
35578;SDS011;21687;48.900;9.188;2023-07-30T08:23:35;2.37;;;1.87;;
35578;SDS011;21687;48.900;9.188;2023-07-30T08:26:02;2.27;;;2.00;;
35578;SDS011;21687;48.900;9.188;2023-07-30T08:28:28;3.07;;;2.20;;
35578;SDS011;21687;48.900;9.188;2023-07-30T08:30:59;3.20;;;1.73;;
35578;SDS011;21687;48.900;9.188;2023-07-30T08:33:27;1.80;;;1.70;;
35578;SDS011;21687;48.900;9.188;2023-07-30T08:35:55;1.90;;;1.80;;
35578;SDS011;21687;48.900;9.188;2023-07-30T08:38:22;2.00;;;1.70;;
35578;SDS011;21687;48.900;9.188;2023-07-30T08:40:48;2.00;;;1.80;;
35578;SDS011;21687;48.900;9.188;2023-07-30T08:43:15;1.70;;;1.60;;
35578;SDS011;21687;48.900;9.188;2023-07-30T08:45:43;3.40;;;2.00;;
35578;SDS011;21687;48.900;9.188;2023-07-30T08:48:09;1.80;;;1.50;;
35578;SDS011;21687;48.900;9.188;2023-07-30T08:50:35;2.73;;;1.87;;
35578;SDS011;21687;48.900;9.188;2023-07-30T08:53:03;2.00;;;1.90;;
35578;SDS011;21687;48.900;9.188;2023-07-30T08:55:32;2.10;;;1.90;;
35578;SDS011;21687;48.900;9.188;2023-07-30T08:57:59;3.30;;;2.00;;
35578;SDS011;21687;48.900;9.188;2023-07-30T09:00:28;1.87;;;1.77;;
35578;SDS011;21687;48.900;9.188;2023-07-30T09:02:59;2.30;;;1.63;;
35578;SDS011;21687;48.900;9.188;2023-07-30T09:05:27;2.87;;;2.67;;
35578;SDS011;21687;48.900;9.188;2023-07-30T09:07:54;2.63;;;1.70;;
35578;SDS011;21687;48.900;9.188;2023-07-30T09:10:21;2.43;;;1.90;;
35578;SDS011;21687;48.900;9.188;2023-07-30T09:12:54;1.80;;;1.57;;
35578;SDS011;21687;48.900;9.188;2023-07-30T09:15:33;2.83;;;1.73;;
35578;SDS011;21687;48.900;9.188;2023-07-30T09:18:02;2.87;;;1.70;;
35578;SDS011;21687;48.900;9.188;2023-07-30T09:20:39;2.10;;;1.90;;
35578;SDS011;21687;48.900;9.188;2023-07-30T09:23:06;1.63;;;1.53;;
35578;SDS011;21687;48.900;9.188;2023-07-30T09:25:34;2.30;;;1.80;;
35578;SDS011;21687;48.900;9.188;2023-07-30T09:28:01;1.80;;;1.70;;
35578;SDS011;21687;48.900;9.188;2023-07-30T09:30:28;2.73;;;1.60;;
35578;SDS011;21687;48.900;9.188;2023-07-30T09:32:55;3.37;;;1.90;;
35578;SDS011;21687;48.900;9.188;2023-07-30T09:35:23;2.60;;;1.80;;
35578;SDS011;21687;48.900;9.188;2023-07-30T09:37:57;1.87;;;1.77;;
35578;SDS011;21687;48.900;9.188;2023-07-30T09:40:31;2.30;;;2.00;;
35578;SDS011;21687;48.900;9.188;2023-07-30T09:43:02;2.30;;;2.10;;
35578;SDS011;21687;48.900;9.188;2023-07-30T09:45:32;2.00;;;1.80;;
35578;SDS011;21687;48.900;9.188;2023-07-30T09:48:01;2.40;;;1.73;;
35578;SDS011;21687;48.900;9.188;2023-07-30T09:50:30;2.03;;;1.90;;
35578;SDS011;21687;48.900;9.188;2023-07-30T09:52:58;2.30;;;2.10;;
35578;SDS011;21687;48.900;9.188;2023-07-30T09:55:28;2.57;;;2.00;;
35578;SDS011;21687;48.900;9.188;2023-07-30T09:57:54;2.67;;;2.00;;
35578;SDS011;21687;48.900;9.188;2023-07-30T10:00:21;2.03;;;1.83;;
35578;SDS011;21687;48.900;9.188;2023-07-30T10:02:48;2.20;;;2.00;;
35578;SDS011;21687;48.900;9.188;2023-07-30T10:05:16;2.10;;;1.90;;
35578;SDS011;21687;48.900;9.188;2023-07-30T10:07:53;5.20;;;2.30;;
35578;SDS011;21687;48.900;9.188;2023-07-30T10:10:24;2.33;;;1.83;;
35578;SDS011;21687;48.900;9.188;2023-07-30T10:12:53;2.03;;;1.80;;
35578;SDS011;21687;48.900;9.188;2023-07-30T10:15:23;4.13;;;2.30;;
35578;SDS011;21687;48.900;9.188;2023-07-30T10:17:51;4.27;;;2.40;;
35578;SDS011;21687;48.900;9.188;2023-07-30T10:20:19;2.43;;;2.13;;
35578;SDS011;21687;48.900;9.188;2023-07-30T10:22:50;3.60;;;2.43;;
35578;SDS011;21687;48.900;9.188;2023-07-30T10:25:20;2.43;;;1.90;;
35578;SDS011;21687;48.900;9.188;2023-07-30T10:27:49;1.80;;;1.70;;
35578;SDS011;21687;48.900;9.188;2023-07-30T10:30:17;2.97;;;1.97;;
35578;SDS011;21687;48.900;9.188;2023-07-30T10:32:58;1.80;;;1.70;;
35578;SDS011;21687;48.900;9.188;2023-07-30T10:35:43;3.80;;;2.10;;
35578;SDS011;21687;48.900;9.188;2023-07-30T10:38:14;2.03;;;1.83;;
35578;SDS011;21687;48.900;9.188;2023-07-30T10:40:40;2.10;;;1.90;;
35578;SDS011;21687;48.900;9.188;2023-07-30T10:43:16;4.77;;;2.20;;
35578;SDS011;21687;48.900;9.188;2023-07-30T10:45:49;2.67;;;2.20;;
35578;SDS011;21687;48.900;9.188;2023-07-30T10:48:16;2.20;;;1.90;;
35578;SDS011;21687;48.900;9.188;2023-07-30T10:50:43;4.13;;;2.27;;
35578;SDS011;21687;48.900;9.188;2023-07-30T10:53:14;2.33;;;2.13;;
35578;SDS011;21687;48.900;9.188;2023-07-30T10:55:44;3.40;;;2.53;;
35578;SDS011;21687;48.900;9.188;2023-07-30T10:58:11;5.53;;;2.37;;
35578;SDS011;21687;48.900;9.188;2023-07-30T11:00:38;2.27;;;2.10;;
35578;SDS011;21687;48.900;9.188;2023-07-30T11:03:05;4.27;;;1.80;;
35578;SDS011;21687;48.900;9.188;2023-07-30T11:05:31;2.17;;;2.07;;
35578;SDS011;21687;48.900;9.188;2023-07-30T11:07:57;2.90;;;2.00;;
35578;SDS011;21687;48.900;9.188;2023-07-30T11:10:24;3.60;;;2.30;;
35578;SDS011;21687;48.900;9.188;2023-07-30T11:12:50;3.73;;;2.20;;
35578;SDS011;21687;48.900;9.188;2023-07-30T11:15:17;2.87;;;2.30;;
35578;SDS011;21687;48.900;9.188;2023-07-30T11:17:43;2.77;;;2.20;;
35578;SDS011;21687;48.900;9.188;2023-07-30T11:20:22;2.77;;;2.03;;
35578;SDS011;21687;48.900;9.188;2023-07-30T11:22:52;2.23;;;2.00;;
35578;SDS011;21687;48.900;9.188;2023-07-30T11:25:19;5.23;;;2.57;;
35578;SDS011;21687;48.900;9.188;2023-07-30T11:27:46;2.40;;;2.20;;
35578;SDS011;21687;48.900;9.188;2023-07-30T11:30:13;3.13;;;2.10;;
35578;SDS011;21687;48.900;9.188;2023-07-30T11:32:39;2.47;;;1.80;;
35578;SDS011;21687;48.900;9.188;2023-07-30T11:35:07;2.07;;;1.90;;
35578;SDS011;21687;48.900;9.188;2023-07-30T11:37:34;3.03;;;2.30;;
35578;SDS011;21687;48.900;9.188;2023-07-30T11:40:06;2.13;;;1.97;;
35578;SDS011;21687;48.900;9.188;2023-07-30T11:42:34;2.03;;;1.80;;
35578;SDS011;21687;48.900;9.188;2023-07-30T11:45:16;2.73;;;1.80;;
35578;SDS011;21687;48.900;9.188;2023-07-30T11:47:47;2.50;;;1.90;;
35578;SDS011;21687;48.900;9.188;2023-07-30T11:50:15;4.20;;;2.03;;
35578;SDS011;21687;48.900;9.188;2023-07-30T11:52:51;2.47;;;1.90;;
35578;SDS011;21687;48.900;9.188;2023-07-30T11:55:19;2.10;;;1.90;;
35578;SDS011;21687;48.900;9.188;2023-07-30T11:57:45;4.03;;;2.30;;
35578;SDS011;21687;48.900;9.188;2023-07-30T12:00:12;3.20;;;1.80;;
35578;SDS011;21687;48.900;9.188;2023-07-30T12:02:38;1.97;;;1.73;;
35578;SDS011;21687;48.900;9.188;2023-07-30T12:05:05;2.47;;;1.90;;
35578;SDS011;21687;48.900;9.188;2023-07-30T12:07:34;2.63;;;1.87;;
35578;SDS011;21687;48.900;9.188;2023-07-30T12:10:08;2.03;;;1.70;;
35578;SDS011;21687;48.900;9.188;2023-07-30T12:12:35;6.10;;;1.87;;
35578;SDS011;21687;48.900;9.188;2023-07-30T12:15:02;2.90;;;1.73;;
35578;SDS011;21687;48.900;9.188;2023-07-30T12:17:36;3.13;;;1.70;;
35578;SDS011;21687;48.900;9.188;2023-07-30T12:20:04;3.37;;;2.10;;
35578;SDS011;21687;48.900;9.188;2023-07-30T12:22:34;3.83;;;2.00;;
35578;SDS011;21687;48.900;9.188;2023-07-30T12:25:01;2.07;;;1.90;;
35578;SDS011;21687;48.900;9.188;2023-07-30T12:27:31;3.13;;;2.20;;
35578;SDS011;21687;48.900;9.188;2023-07-30T12:29:57;2.83;;;2.10;;
35578;SDS011;21687;48.900;9.188;2023-07-30T12:32:23;2.10;;;1.50;;
35578;SDS011;21687;48.900;9.188;2023-07-30T12:34:53;2.87;;;1.60;;
35578;SDS011;21687;48.900;9.188;2023-07-30T12:37:19;3.93;;;1.60;;
35578;SDS011;21687;48.900;9.188;2023-07-30T12:39:46;2.40;;;1.50;;
35578;SDS011;21687;48.900;9.188;2023-07-30T12:42:13;6.20;;;2.50;;
35578;SDS011;21687;48.900;9.188;2023-07-30T12:44:39;2.73;;;1.77;;
35578;SDS011;21687;48.900;9.188;2023-07-30T12:47:06;2.30;;;1.73;;
35578;SDS011;21687;48.900;9.188;2023-07-30T12:49:32;2.90;;;1.60;;
35578;SDS011;21687;48.900;9.188;2023-07-30T12:51:58;1.70;;;1.60;;
35578;SDS011;21687;48.900;9.188;2023-07-30T12:54:24;5.13;;;1.73;;
35578;SDS011;21687;48.900;9.188;2023-07-30T12:56:51;2.00;;;1.90;;
35578;SDS011;21687;48.900;9.188;2023-07-30T12:59:17;2.50;;;1.90;;
35578;SDS011;21687;48.900;9.188;2023-07-30T13:01:43;2.23;;;1.60;;
35578;SDS011;21687;48.900;9.188;2023-07-30T13:04:09;1.83;;;1.60;;
35578;SDS011;21687;48.900;9.188;2023-07-30T13:06:35;3.37;;;1.70;;
35578;SDS011;21687;48.900;9.188;2023-07-30T13:09:02;6.30;;;2.30;;
35578;SDS011;21687;48.900;9.188;2023-07-30T13:11:28;2.90;;;1.60;;
35578;SDS011;21687;48.900;9.188;2023-07-30T13:13:54;1.90;;;1.53;;
35578;SDS011;21687;48.900;9.188;2023-07-30T13:16:21;2.00;;;1.53;;
35578;SDS011;21687;48.900;9.188;2023-07-30T13:18:47;1.63;;;1.53;;
35578;SDS011;21687;48.900;9.188;2023-07-30T13:21:13;2.03;;;1.50;;
35578;SDS011;21687;48.900;9.188;2023-07-30T13:23:40;3.17;;;2.10;;
35578;SDS011;21687;48.900;9.188;2023-07-30T13:26:06;2.17;;;1.63;;
35578;SDS011;21687;48.900;9.188;2023-07-30T13:28:32;2.73;;;1.70;;
35578;SDS011;21687;48.900;9.188;2023-07-30T13:30:58;2.20;;;1.60;;
35578;SDS011;21687;48.900;9.188;2023-07-30T13:33:25;3.87;;;1.90;;
35578;SDS011;21687;48.900;9.188;2023-07-30T13:35:51;2.60;;;1.50;;
35578;SDS011;21687;48.900;9.188;2023-07-30T13:38:17;2.70;;;1.80;;
35578;SDS011;21687;48.900;9.188;2023-07-30T13:40:46;2.80;;;1.70;;
35578;SDS011;21687;48.900;9.188;2023-07-30T13:43:13;1.50;;;1.40;;
35578;SDS011;21687;48.900;9.188;2023-07-30T13:45:39;2.87;;;2.00;;
35578;SDS011;21687;48.900;9.188;2023-07-30T13:48:05;4.23;;;1.50;;
35578;SDS011;21687;48.900;9.188;2023-07-30T13:50:31;2.40;;;1.90;;
35578;SDS011;21687;48.900;9.188;2023-07-30T13:52:58;3.60;;;2.00;;
35578;SDS011;21687;48.900;9.188;2023-07-30T13:55:24;2.03;;;1.67;;
35578;SDS011;21687;48.900;9.188;2023-07-30T13:57:50;2.50;;;1.80;;
35578;SDS011;21687;48.900;9.188;2023-07-30T14:00:16;2.90;;;1.70;;
35578;SDS011;21687;48.900;9.188;2023-07-30T14:02:43;4.23;;;2.20;;
35578;SDS011;21687;48.900;9.188;2023-07-30T14:05:10;3.47;;;2.40;;
35578;SDS011;21687;48.900;9.188;2023-07-30T14:07:37;4.80;;;1.80;;
35578;SDS011;21687;48.900;9.188;2023-07-30T14:10:05;4.23;;;1.97;;
35578;SDS011;21687;48.900;9.188;2023-07-30T14:12:32;2.03;;;1.63;;
35578;SDS011;21687;48.900;9.188;2023-07-30T14:14:58;4.00;;;1.60;;
35578;SDS011;21687;48.900;9.188;2023-07-30T14:17:24;1.77;;;1.40;;
35578;SDS011;21687;48.900;9.188;2023-07-30T14:19:51;2.47;;;1.80;;
35578;SDS011;21687;48.900;9.188;2023-07-30T14:22:17;1.87;;;1.70;;
35578;SDS011;21687;48.900;9.188;2023-07-30T14:24:43;4.17;;;1.90;;
35578;SDS011;21687;48.900;9.188;2023-07-30T14:27:10;4.33;;;1.97;;
35578;SDS011;21687;48.900;9.188;2023-07-30T14:29:36;3.23;;;1.80;;
35578;SDS011;21687;48.900;9.188;2023-07-30T14:32:02;4.23;;;1.87;;
35578;SDS011;21687;48.900;9.188;2023-07-30T14:34:29;2.63;;;1.67;;
35578;SDS011;21687;48.900;9.188;2023-07-30T14:36:55;3.17;;;1.80;;
35578;SDS011;21687;48.900;9.188;2023-07-30T14:39:22;3.50;;;1.53;;
35578;SDS011;21687;48.900;9.188;2023-07-30T14:41:48;3.03;;;1.97;;
35578;SDS011;21687;48.900;9.188;2023-07-30T14:44:14;2.43;;;1.57;;
35578;SDS011;21687;48.900;9.188;2023-07-30T14:46:40;2.90;;;1.60;;
35578;SDS011;21687;48.900;9.188;2023-07-30T14:49:07;2.93;;;1.60;;